createdAt,value
2022-08-01T05:44:14.711Z,54.32
2022-08-01T05:46:42.821Z,53.80
2022-08-01T05:49:10.713Z,53.03
2022-08-01T05:51:38.785Z,52.56
2022-08-01T05:54:06.737Z,51.77
2022-08-01T05:56:34.516Z,51.61
2022-08-01T05:59:04.544Z,50.81
2022-08-01T06:01:33.127Z,50.58
2022-08-01T06:04:00.897Z,49.79
2022-08-01T06:06:28.750Z,49.59
2022-08-01T06:08:56.515Z,49.37
2022-08-01T06:11:24.305Z,48.87
2022-08-01T06:13:52.185Z,49.20
2022-08-01T06:16:20.065Z,48.84
2022-08-01T06:18:47.881Z,48.72
2022-08-01T06:21:15.708Z,48.48
2022-08-01T06:23:43.601Z,48.32
2022-08-01T06:26:11.839Z,48.25
2022-08-01T06:28:40.288Z,48.31
2022-08-01T06:31:08.148Z,48.49
2022-08-01T06:33:38.755Z,48.15
2022-08-01T06:36:10.651Z,47.97
2022-08-01T06:38:39.209Z,47.83
2022-08-01T06:41:13.046Z,47.97
2022-08-01T06:43:44.041Z,47.67
2022-08-01T06:46:11.872Z,48.25
2022-08-01T06:48:40.448Z,47.84
2022-08-01T06:51:14.502Z,47.71
2022-08-01T06:53:44.143Z,47.54
2022-08-01T06:56:12.853Z,47.58
2022-08-01T06:58:40.860Z,47.61
2022-08-01T07:01:08.847Z,47.36
2022-08-01T07:03:54.276Z,47.40
2022-08-01T07:06:26.799Z,47.26
2022-08-01T07:08:59.470Z,47.08
2022-08-01T07:11:31.776Z,46.80
2022-08-01T07:14:00.695Z,47.34
2022-08-01T07:16:28.474Z,46.85
2022-08-01T07:18:56.335Z,46.88
2022-08-01T07:21:40.172Z,46.95
2022-08-01T07:24:14.527Z,46.16
2022-08-01T07:26:53.866Z,45.80
2022-08-01T07:29:27.041Z,45.81
2022-08-01T07:31:57.065Z,45.51
2022-08-01T07:34:26.315Z,45.82
2022-08-01T07:36:54.618Z,45.67
2022-08-01T07:39:22.903Z,46.04
2022-08-01T07:42:06.341Z,46.07
2022-08-01T07:44:36.852Z,46.27
2022-08-01T07:47:06.015Z,46.02
2022-08-01T07:49:39.647Z,46.13
2022-08-01T07:52:09.198Z,46.38
2022-08-01T07:54:37.392Z,46.24
2022-08-01T07:57:05.738Z,46.21
2022-08-01T07:59:33.720Z,46.24
2022-08-01T08:02:01.639Z,46.03
2022-08-01T08:04:30.616Z,46.07
2022-08-01T08:06:58.429Z,45.81
2022-08-01T08:09:26.197Z,45.73
2022-08-01T08:11:53.990Z,45.71
2022-08-01T08:14:32.230Z,45.62
2022-08-01T08:17:01.879Z,46.16
2022-08-01T08:19:38.341Z,45.94
2022-08-01T08:22:09.126Z,46.01
2022-08-01T08:24:46.670Z,45.83
2022-08-01T08:27:15.759Z,45.73
2022-08-01T08:29:43.689Z,45.63
2022-08-01T08:32:13.433Z,45.84
2022-08-01T08:34:41.218Z,45.84
2022-08-01T08:37:09.617Z,45.58
2022-08-01T08:39:41.660Z,45.09
2022-08-01T08:42:14.101Z,45.01
2022-08-01T08:44:44.222Z,45.16
2022-08-01T08:47:19.804Z,45.29
2022-08-01T08:49:52.471Z,44.96
2022-08-01T08:52:21.959Z,44.97
2022-08-01T08:54:52.516Z,44.63
2022-08-01T08:57:22.284Z,44.36
2022-08-01T08:59:53.074Z,44.26
2022-08-01T09:02:22.330Z,44.42
2022-08-01T09:04:52.334Z,44.50
2022-08-01T09:07:20.270Z,44.32
2022-08-01T09:09:50.154Z,43.75
2022-08-01T09:12:21.344Z,43.97
2022-08-01T09:14:51.297Z,43.73
2022-08-01T09:17:19.317Z,43.96
2022-08-01T09:19:54.510Z,43.36
2022-08-01T09:22:24.784Z,43.20
2022-08-01T09:25:07.472Z,43.09
2022-08-01T09:27:44.398Z,43.21
2022-08-01T09:30:17.090Z,42.64
2022-08-01T09:32:59.229Z,43.03
2022-08-01T09:35:36.299Z,42.83
2022-08-01T09:38:22.997Z,43.16
2022-08-01T09:41:02.406Z,42.60
2022-08-01T09:43:32.767Z,42.82
2022-08-01T09:46:12.568Z,42.18
2022-08-01T09:48:56.316Z,42.57
2022-08-01T09:51:59.594Z,41.61
2022-08-01T09:54:34.908Z,41.87
2022-08-01T09:57:18.013Z,42.05
2022-08-01T09:59:58.768Z,42.30
2022-08-01T10:02:41.012Z,41.88
2022-08-01T10:05:18.982Z,41.94
2022-08-01T10:08:07.746Z,42.10
2022-08-01T10:10:37.473Z,41.97
2022-08-01T10:13:05.982Z,41.54
2022-08-01T10:15:38.178Z,41.59
2022-08-01T10:18:16.462Z,41.20
2022-08-01T10:20:56.574Z,41.14
2022-08-01T10:23:40.008Z,41.41
2022-08-01T10:26:13.017Z,40.67
2022-08-01T10:28:49.250Z,40.99
2022-08-01T10:31:19.181Z,40.45
2022-08-01T10:33:59.882Z,41.11
2022-08-01T10:36:28.173Z,40.40
2022-08-01T10:38:57.054Z,40.40
2022-08-01T10:41:27.403Z,40.39
2022-08-01T10:43:56.719Z,40.65
2022-08-01T10:46:25.318Z,40.19
2022-08-01T10:49:01.087Z,39.94
2022-08-01T10:51:52.358Z,39.78
2022-08-01T10:54:17.746Z,39.52
2022-08-01T10:56:50.039Z,39.72
2022-08-01T10:59:49.900Z,39.99
2022-08-01T11:02:32.998Z,40.07
2022-08-01T11:05:10.928Z,39.65
2022-08-01T11:07:53.404Z,39.69
2022-08-01T11:10:38.812Z,39.41
2022-08-01T11:13:09.614Z,39.30
2022-08-01T11:15:50.171Z,39.42
2022-08-01T11:18:30.878Z,38.99
2022-08-01T11:21:57.446Z,39.72
2022-08-01T11:23:54.859Z,39.81
2022-08-01T11:26:29.012Z,38.85
2022-08-01T11:29:22.132Z,38.09
2022-08-01T11:31:52.823Z,38.55
2022-08-01T11:34:21.123Z,38.00
2022-08-01T11:36:58.729Z,37.17
2022-08-01T11:39:28.303Z,36.98
2022-08-01T11:42:21.766Z,37.49
2022-08-01T11:44:51.373Z,37.52
2022-08-01T11:47:21.211Z,37.66
2022-08-01T11:49:56.150Z,37.07
2022-08-01T11:52:32.818Z,37.48
2022-08-01T11:55:02.521Z,37.88
2022-08-01T11:57:38.275Z,37.90
2022-08-01T12:00:17.808Z,37.74
2022-08-01T12:02:48.239Z,37.79
2022-08-01T12:05:24.672Z,37.13
2022-08-01T12:07:54.340Z,37.29
2022-08-01T12:10:25.941Z,36.85
2022-08-01T12:13:02.295Z,37.70
2022-08-01T12:15:38.860Z,37.52
2022-08-01T12:18:08.351Z,36.61
2022-08-01T12:20:56.295Z,36.59
2022-08-01T12:23:25.282Z,36.70
2022-08-01T12:25:54.527Z,36.58
2022-08-01T12:28:22.562Z,36.76
2022-08-01T12:30:51.118Z,36.55
2022-08-01T12:33:21.539Z,36.29
2022-08-01T12:35:49.784Z,36.69
2022-08-01T12:38:25.914Z,36.56
2022-08-01T12:40:54.897Z,36.43
2022-08-01T12:43:29.248Z,36.81
2022-08-01T12:46:03.079Z,36.91
2022-08-01T12:48:32.713Z,36.28
2022-08-01T12:51:03.229Z,36.02
2022-08-01T12:53:39.731Z,36.59
2022-08-01T12:56:11.404Z,35.67
2022-08-01T12:58:40.253Z,35.71
2022-08-01T13:01:13.342Z,35.54
2022-08-01T13:03:41.831Z,34.97
2022-08-01T13:06:16.676Z,35.15
2022-08-01T13:08:46.608Z,35.40
2022-08-01T13:11:17.311Z,36.02
2022-08-01T13:13:51.427Z,36.12
2022-08-01T13:16:48.817Z,35.61
2022-08-01T13:19:14.970Z,34.77
2022-08-01T13:21:56.949Z,34.43
2022-08-01T13:24:27.913Z,34.44
2022-08-01T13:27:03.520Z,33.93
2022-08-01T13:29:35.895Z,33.59
2022-08-01T13:32:28.975Z,33.43
2022-08-01T13:35:10.603Z,33.62
2022-08-01T13:37:40.705Z,33.09
2022-08-01T13:40:11.466Z,32.58
2022-08-01T13:42:39.673Z,32.77
2022-08-01T13:45:14.006Z,32.44
2022-08-01T13:48:03.637Z,32.00
2022-08-01T13:50:32.873Z,32.03
2022-08-01T13:53:00.684Z,32.54
2022-08-01T13:55:34.246Z,32.31
2022-08-01T13:58:03.888Z,32.23
2022-08-01T14:00:32.034Z,32.32
2022-08-01T14:02:59.825Z,32.16
2022-08-01T14:05:27.835Z,31.91
2022-08-01T14:07:56.595Z,31.66
2022-08-01T14:10:27.416Z,31.74
2022-08-01T14:12:58.639Z,32.00
2022-08-01T14:15:38.859Z,31.98
2022-08-01T14:18:10.055Z,32.36
2022-08-01T14:20:40.021Z,31.62
2022-08-01T14:23:09.378Z,31.40
2022-08-01T14:26:05.424Z,31.18
2022-08-01T14:28:31.226Z,31.36
2022-08-01T14:31:00.208Z,31.38
2022-08-01T14:33:28.467Z,30.89
2022-08-01T14:36:05.421Z,31.05
2022-08-01T14:38:34.793Z,31.13
2022-08-01T14:41:04.487Z,31.58
2022-08-01T14:43:35.178Z,31.76
2022-08-01T14:46:05.137Z,31.31
2022-08-01T14:48:33.389Z,31.10
2022-08-01T14:51:04.378Z,31.32
2022-08-01T14:53:34.435Z,30.18
2022-08-01T14:56:05.365Z,30.29
2022-08-01T14:58:33.774Z,29.64
2022-08-01T15:01:01.862Z,28.89
2022-08-01T15:03:29.740Z,28.49
2022-08-01T15:05:57.511Z,29.03
2022-08-01T15:08:25.334Z,29.08
2022-08-01T15:10:53.415Z,28.76
2022-08-01T15:13:21.318Z,29.26
2022-08-01T15:15:49.192Z,28.86
2022-08-01T15:18:17.109Z,29.24
2022-08-01T15:37:20.335Z,32.78
2022-08-01T15:39:48.952Z,32.87
2022-08-01T15:42:19.963Z,32.71
2022-08-01T15:44:53.217Z,32.26
2022-08-01T15:47:21.108Z,31.87
2022-08-01T15:49:52.416Z,31.66
2022-08-01T15:52:21.768Z,31.53
2022-08-01T15:54:50.746Z,31.67
2022-08-01T15:57:18.812Z,31.50
2022-08-01T15:59:46.640Z,31.43
2022-08-01T16:02:14.996Z,31.60
2022-08-01T16:04:42.937Z,31.74
2022-08-01T16:07:11.616Z,31.62
2022-08-01T16:09:39.674Z,31.54
2022-08-01T16:12:08.661Z,31.68
2022-08-01T16:14:36.825Z,31.22
2022-08-01T16:17:04.600Z,31.53
2022-08-01T16:19:32.380Z,31.80
2022-08-01T16:22:00.143Z,31.76
2022-08-01T16:24:31.179Z,32.35
2022-08-01T16:26:58.954Z,31.55
2022-08-01T16:29:30.739Z,31.83
2022-08-01T16:32:07.950Z,31.59
2022-08-01T16:34:45.978Z,31.73
2022-08-01T16:37:15.383Z,31.73
2022-08-01T16:39:43.171Z,31.71
2022-08-01T16:42:11.277Z,32.09
2022-08-01T16:44:39.923Z,32.46
2022-08-01T16:47:07.745Z,32.58
2022-08-01T16:49:37.508Z,32.52
2022-08-01T16:52:05.926Z,32.92
2022-08-01T16:54:33.879Z,33.05
2022-08-01T16:57:08.460Z,33.07
2022-08-01T16:59:41.555Z,33.42
2022-08-01T17:02:11.148Z,33.33
2022-08-01T17:04:39.073Z,33.50
2022-08-01T17:07:07.317Z,33.63
2022-08-01T17:09:38.652Z,33.78
2022-08-01T17:12:14.037Z,33.72
2022-08-01T17:15:00.123Z,33.50
2022-08-01T17:17:28.683Z,33.66
2022-08-01T17:19:56.524Z,34.02
2022-08-01T17:22:24.291Z,33.86
2022-08-01T17:24:52.536Z,34.17
2022-08-01T17:27:20.378Z,34.07
2022-08-01T17:29:48.217Z,34.44
2022-08-01T17:32:16.016Z,34.79
2022-08-01T17:34:43.835Z,34.54
2022-08-01T17:37:11.772Z,34.43
2022-08-01T17:39:40.164Z,34.79
2022-08-01T17:42:10.771Z,34.97
2022-08-01T17:44:39.368Z,35.30
2022-08-01T17:47:10.140Z,35.05
2022-08-01T17:49:54.924Z,35.62
2022-08-01T17:52:23.169Z,35.87
2022-08-01T17:54:54.137Z,35.52
2022-08-01T17:57:21.995Z,36.00
2022-08-01T17:59:50.695Z,36.32
2022-08-01T18:02:19.182Z,36.34
2022-08-01T18:04:47.364Z,36.51
2022-08-01T18:07:16.338Z,36.71
2022-08-01T18:09:46.053Z,36.91
2022-08-01T18:12:15.271Z,36.90
2022-08-01T18:14:44.703Z,36.67
2022-08-01T18:17:13.218Z,36.73
2022-08-01T18:19:41.459Z,36.82
2022-08-01T18:22:33.175Z,36.84
2022-08-01T18:25:04.812Z,36.70
2022-08-01T18:28:23.361Z,37.25
2022-08-01T18:30:25.049Z,36.76
2022-08-01T18:32:52.899Z,36.73
2022-08-01T18:35:20.798Z,36.65
2022-08-01T18:37:55.328Z,36.80
2022-08-01T18:40:24.732Z,36.88
2022-08-01T18:42:54.188Z,37.51
2022-08-01T18:45:22.101Z,37.30
2022-08-01T18:47:49.857Z,37.75
2022-08-01T18:50:17.742Z,37.36
2022-08-01T18:52:45.591Z,37.61
2022-08-01T18:55:13.458Z,37.74
2022-08-01T18:57:42.714Z,37.81
2022-08-01T19:00:12.225Z,37.60
2022-08-01T19:02:41.754Z,37.85
2022-08-01T19:05:10.956Z,37.58
2022-08-01T19:08:05.055Z,37.90
2022-08-01T19:10:26.734Z,37.66
2022-08-01T19:12:54.511Z,38.11
2022-08-01T19:15:22.298Z,37.92
2022-08-01T19:17:50.239Z,37.78
2022-08-01T19:20:18.171Z,37.78
2022-08-01T19:22:45.938Z,37.76
2022-08-01T19:25:16.896Z,38.13
2022-08-01T19:27:49.060Z,37.92
2022-08-01T19:30:19.209Z,38.53
2022-08-01T19:32:49.012Z,38.08
2022-08-01T19:35:17.907Z,38.08
2022-08-01T19:37:52.531Z,38.14
2022-08-01T19:40:27.591Z,38.48
2022-08-01T19:42:57.300Z,38.36
2022-08-01T19:45:29.582Z,38.71
2022-08-01T19:47:58.086Z,38.46
2022-08-01T19:50:27.547Z,38.77
2022-08-01T19:53:03.444Z,38.83
2022-08-01T19:55:36.323Z,38.79
2022-08-01T19:58:28.237Z,38.58
2022-08-01T20:00:57.506Z,39.09
2022-08-01T20:03:28.071Z,38.68
2022-08-01T20:05:57.532Z,38.90
2022-08-01T20:08:26.188Z,39.25
2022-08-01T20:10:55.060Z,38.87
2022-08-01T20:13:23.748Z,39.13
2022-08-01T20:15:54.161Z,39.34
2022-08-01T20:18:22.803Z,39.21
2022-08-01T20:20:52.886Z,39.51
2022-08-01T20:23:24.153Z,39.56
2022-08-01T20:25:59.137Z,39.31
2022-08-01T20:28:29.500Z,39.54
2022-08-01T20:31:05.393Z,39.60
2022-08-01T20:33:39.404Z,39.28
2022-08-01T20:36:11.963Z,39.97
2022-08-01T20:38:56.855Z,39.85
2022-08-01T20:41:26.688Z,39.50
2022-08-01T20:43:59.676Z,39.67
2022-08-01T20:46:28.969Z,39.71
2022-08-01T20:48:58.837Z,40.12
2022-08-01T20:51:28.601Z,39.82
2022-08-01T20:53:58.648Z,39.73
2022-08-01T20:57:00.554Z,39.94
2022-08-01T20:59:55.515Z,39.63
2022-08-01T21:02:47.833Z,39.81
2022-08-01T21:05:30.371Z,39.84
2022-08-01T21:08:23.095Z,39.80
2022-08-01T21:10:57.841Z,40.30
2022-08-01T21:13:41.333Z,40.16
2022-08-01T21:16:23.092Z,40.30
2022-08-01T21:19:18.556Z,40.12
2022-08-01T21:21:55.793Z,40.57
2022-08-01T21:24:28.334Z,40.49
2022-08-01T21:26:57.675Z,40.47
2022-08-01T21:29:26.524Z,40.65
2022-08-01T21:32:11.683Z,40.96
2022-08-01T21:34:40.470Z,40.84
2022-08-01T21:37:09.960Z,41.11
2022-08-01T21:39:38.764Z,41.18
2022-08-01T21:42:09.426Z,41.11
2022-08-01T21:44:46.218Z,40.92
2022-08-01T21:47:15.579Z,40.91
2022-08-01T21:49:43.519Z,41.03
2022-08-01T21:52:16.323Z,41.10
2022-08-01T21:55:22.992Z,41.02
2022-08-01T21:58:48.530Z,41.24
2022-08-01T22:01:50.032Z,41.05
2022-08-01T22:05:03.659Z,41.10
2022-08-01T22:07:39.348Z,41.28
2022-08-01T22:10:08.062Z,41.08
2022-08-01T22:12:36.250Z,41.42
2022-08-01T22:15:06.885Z,41.20
2022-08-01T22:17:35.401Z,41.58
2022-08-01T22:20:03.952Z,41.45
2022-08-01T22:22:51.116Z,41.96
2022-08-01T22:25:22.290Z,41.95
2022-08-01T22:28:06.222Z,42.20
2022-08-01T22:30:42.276Z,42.14
2022-08-01T22:33:16.309Z,42.14
2022-08-01T22:35:50.571Z,42.38
2022-08-01T22:38:22.749Z,42.38
2022-08-01T22:41:14.173Z,42.41
2022-08-01T22:44:04.090Z,42.40
2022-08-01T22:47:00.389Z,42.50
2022-08-01T22:50:03.917Z,42.59
2022-08-01T22:52:44.573Z,42.69
2022-08-01T22:55:20.418Z,42.93
2022-08-01T22:57:59.799Z,43.01
2022-08-01T23:00:34.258Z,43.01
2022-08-01T23:03:32.756Z,43.05
2022-08-01T23:06:13.569Z,43.35
2022-08-01T23:08:41.532Z,43.78
2022-08-01T23:11:09.369Z,43.29
2022-08-01T23:13:38.208Z,43.61
2022-08-01T23:16:06.182Z,43.79
2022-08-01T23:18:34.377Z,43.85
2022-08-01T23:21:03.280Z,43.91
2022-08-01T23:23:33.529Z,44.07
2022-08-01T23:26:01.463Z,44.13
2022-08-01T23:28:29.853Z,44.17
2022-08-01T23:30:58.436Z,44.63
2022-08-01T23:33:26.263Z,45.61
2022-08-01T23:35:54.254Z,46.78
2022-08-01T23:38:22.316Z,46.96
2022-08-01T23:40:51.042Z,46.87
2022-08-01T23:43:18.993Z,47.61
2022-08-01T23:46:03.818Z,48.17
2022-08-01T23:48:37.779Z,48.09
2022-08-01T23:51:07.613Z,48.51
2022-08-01T23:53:38.309Z,48.75
2022-08-01T23:56:06.695Z,49.28
2022-08-01T23:58:34.518Z,49.61
